sensor_id;sensor_type;location;lat;lon;timestamp;P1;durP1;ratioP1;P2;durP2;ratioP2
2656;SDS011;1338;48.176;11.792;2022-08-21T00:01:44;4.20;;;3.90;;
2656;SDS011;1338;48.176;11.792;2022-08-21T00:04:12;4.37;;;4.07;;
2656;SDS011;1338;48.176;11.792;2022-08-21T00:06:49;7.33;;;3.87;;
2656;SDS011;1338;48.176;11.792;2022-08-21T00:09:18;4.20;;;3.90;;
2656;SDS011;1338;48.176;11.792;2022-08-21T00:11:47;4.03;;;3.73;;
2656;SDS011;1338;48.176;11.792;2022-08-21T00:14:16;3.83;;;3.53;;
2656;SDS011;1338;48.176;11.792;2022-08-21T00:16:44;3.70;;;3.50;;
2656;SDS011;1338;48.176;11.792;2022-08-21T00:19:12;4.90;;;4.50;;
2656;SDS011;1338;48.176;11.792;2022-08-21T00:21:40;3.87;;;3.57;;
2656;SDS011;1338;48.176;11.792;2022-08-21T00:24:11;4.20;;;3.90;;
2656;SDS011;1338;48.176;11.792;2022-08-21T00:26:39;4.13;;;3.80;;
2656;SDS011;1338;48.176;11.792;2022-08-21T00:29:09;4.23;;;3.93;;
2656;SDS011;1338;48.176;11.792;2022-08-21T00:31:37;4.00;;;3.70;;
2656;SDS011;1338;48.176;11.792;2022-08-21T00:34:06;4.20;;;3.90;;
2656;SDS011;1338;48.176;11.792;2022-08-21T00:36:34;4.43;;;4.03;;
2656;SDS011;1338;48.176;11.792;2022-08-21T00:39:03;4.00;;;3.70;;
2656;SDS011;1338;48.176;11.792;2022-08-21T00:41:35;3.90;;;3.63;;
2656;SDS011;1338;48.176;11.792;2022-08-21T00:44:05;4.80;;;4.10;;
2656;SDS011;1338;48.176;11.792;2022-08-21T00:46:35;3.67;;;3.47;;
2656;SDS011;1338;48.176;11.792;2022-08-21T00:49:05;4.37;;;3.97;;
2656;SDS011;1338;48.176;11.792;2022-08-21T00:51:35;3.83;;;3.53;;
2656;SDS011;1338;48.176;11.792;2022-08-21T00:54:07;4.10;;;3.73;;
2656;SDS011;1338;48.176;11.792;2022-08-21T00:56:45;4.20;;;3.80;;
2656;SDS011;1338;48.176;11.792;2022-08-21T00:59:16;3.90;;;3.60;;
2656;SDS011;1338;48.176;11.792;2022-08-21T01:01:46;4.17;;;3.90;;
2656;SDS011;1338;48.176;11.792;2022-08-21T01:04:15;4.80;;;3.70;;
2656;SDS011;1338;48.176;11.792;2022-08-21T01:06:43;5.13;;;3.30;;
2656;SDS011;1338;48.176;11.792;2022-08-21T01:09:12;3.83;;;3.53;;
2656;SDS011;1338;48.176;11.792;2022-08-21T01:11:41;4.00;;;3.70;;
2656;SDS011;1338;48.176;11.792;2022-08-21T01:14:11;3.90;;;3.60;;
2656;SDS011;1338;48.176;11.792;2022-08-21T01:16:41;7.87;;;3.67;;
2656;SDS011;1338;48.176;11.792;2022-08-21T01:19:12;4.53;;;4.13;;
2656;SDS011;1338;48.176;11.792;2022-08-21T01:21:42;4.30;;;4.00;;
2656;SDS011;1338;48.176;11.792;2022-08-21T01:24:11;4.30;;;4.00;;
2656;SDS011;1338;48.176;11.792;2022-08-21T01:26:40;3.73;;;3.43;;
2656;SDS011;1338;48.176;11.792;2022-08-21T01:29:12;4.10;;;3.80;;
2656;SDS011;1338;48.176;11.792;2022-08-21T01:31:43;3.93;;;3.63;;
2656;SDS011;1338;48.176;11.792;2022-08-21T01:34:12;4.00;;;3.70;;
2656;SDS011;1338;48.176;11.792;2022-08-21T01:36:44;3.77;;;3.40;;
2656;SDS011;1338;48.176;11.792;2022-08-21T01:39:12;3.30;;;3.10;;
2656;SDS011;1338;48.176;11.792;2022-08-21T01:41:41;3.50;;;3.30;;
2656;SDS011;1338;48.176;11.792;2022-08-21T01:44:09;3.53;;;3.30;;
2656;SDS011;1338;48.176;11.792;2022-08-21T01:46:37;3.70;;;3.40;;
2656;SDS011;1338;48.176;11.792;2022-08-21T01:49:06;3.80;;;3.50;;
2656;SDS011;1338;48.176;11.792;2022-08-21T01:51:34;4.20;;;3.27;;
2656;SDS011;1338;48.176;11.792;2022-08-21T01:54:04;3.83;;;3.47;;
2656;SDS011;1338;48.176;11.792;2022-08-21T01:56:35;5.13;;;3.30;;
2656;SDS011;1338;48.176;11.792;2022-08-21T01:59:04;3.23;;;2.93;;
2656;SDS011;1338;48.176;11.792;2022-08-21T02:01:33;4.17;;;3.87;;
2656;SDS011;1338;48.176;11.792;2022-08-21T02:04:01;3.77;;;3.47;;
2656;SDS011;1338;48.176;11.792;2022-08-21T02:06:29;3.70;;;3.50;;
2656;SDS011;1338;48.176;11.792;2022-08-21T02:08:58;4.03;;;3.53;;
2656;SDS011;1338;48.176;11.792;2022-08-21T02:11:27;3.40;;;3.20;;
2656;SDS011;1338;48.176;11.792;2022-08-21T02:13:55;4.03;;;3.67;;
2656;SDS011;1338;48.176;11.792;2022-08-21T02:16:23;4.57;;;4.17;;
2656;SDS011;1338;48.176;11.792;2022-08-21T02:18:52;4.00;;;3.60;;
2656;SDS011;1338;48.176;11.792;2022-08-21T02:21:20;3.50;;;3.30;;
2656;SDS011;1338;48.176;11.792;2022-08-21T02:23:48;3.70;;;3.30;;
2656;SDS011;1338;48.176;11.792;2022-08-21T02:26:16;3.30;;;3.10;;
2656;SDS011;1338;48.176;11.792;2022-08-21T02:28:46;3.33;;;3.13;;
2656;SDS011;1338;48.176;11.792;2022-08-21T02:31:14;4.30;;;3.70;;
2656;SDS011;1338;48.176;11.792;2022-08-21T02:33:42;3.60;;;3.30;;
2656;SDS011;1338;48.176;11.792;2022-08-21T02:36:11;3.97;;;3.67;;
2656;SDS011;1338;48.176;11.792;2022-08-21T02:38:40;3.67;;;3.40;;
2656;SDS011;1338;48.176;11.792;2022-08-21T02:41:12;3.93;;;3.63;;
2656;SDS011;1338;48.176;11.792;2022-08-21T02:43:42;3.67;;;3.47;;
2656;SDS011;1338;48.176;11.792;2022-08-21T02:46:12;3.90;;;3.60;;
2656;SDS011;1338;48.176;11.792;2022-08-21T02:48:42;3.77;;;3.47;;
2656;SDS011;1338;48.176;11.792;2022-08-21T02:51:12;4.23;;;3.90;;
2656;SDS011;1338;48.176;11.792;2022-08-21T02:53:41;4.43;;;4.03;;
2656;SDS011;1338;48.176;11.792;2022-08-21T02:56:12;3.77;;;3.47;;
2656;SDS011;1338;48.176;11.792;2022-08-21T02:58:43;3.80;;;3.50;;
2656;SDS011;1338;48.176;11.792;2022-08-21T03:01:14;5.17;;;3.77;;
2656;SDS011;1338;48.176;11.792;2022-08-21T03:03:44;3.50;;;3.30;;
2656;SDS011;1338;48.176;11.792;2022-08-21T03:06:16;3.47;;;3.17;;
2656;SDS011;1338;48.176;11.792;2022-08-21T03:08:46;4.80;;;4.30;;
2656;SDS011;1338;48.176;11.792;2022-08-21T03:11:14;4.73;;;4.33;;
2656;SDS011;1338;48.176;11.792;2022-08-21T03:13:42;3.90;;;3.43;;
2656;SDS011;1338;48.176;11.792;2022-08-21T03:16:11;4.23;;;3.80;;
2656;SDS011;1338;48.176;11.792;2022-08-21T03:18:40;3.70;;;3.50;;
2656;SDS011;1338;48.176;11.792;2022-08-21T03:21:08;3.87;;;3.57;;
2656;SDS011;1338;48.176;11.792;2022-08-21T03:23:37;4.60;;;4.20;;
2656;SDS011;1338;48.176;11.792;2022-08-21T03:26:06;8.63;;;3.70;;
2656;SDS011;1338;48.176;11.792;2022-08-21T03:28:34;4.47;;;3.93;;
2656;SDS011;1338;48.176;11.792;2022-08-21T03:31:02;4.43;;;3.93;;
2656;SDS011;1338;48.176;11.792;2022-08-21T03:33:31;4.40;;;4.10;;
2656;SDS011;1338;48.176;11.792;2022-08-21T03:36:03;3.93;;;3.63;;
2656;SDS011;1338;48.176;11.792;2022-08-21T03:38:33;4.33;;;3.93;;
2656;SDS011;1338;48.176;11.792;2022-08-21T03:41:04;4.17;;;3.87;;
2656;SDS011;1338;48.176;11.792;2022-08-21T03:43:33;4.90;;;4.60;;
2656;SDS011;1338;48.176;11.792;2022-08-21T03:46:03;5.37;;;4.37;;
2656;SDS011;1338;48.176;11.792;2022-08-21T03:48:32;4.23;;;3.93;;
2656;SDS011;1338;48.176;11.792;2022-08-21T03:51:03;4.13;;;3.83;;
2656;SDS011;1338;48.176;11.792;2022-08-21T03:53:32;4.40;;;4.10;;
2656;SDS011;1338;48.176;11.792;2022-08-21T03:56:00;4.30;;;4.00;;
2656;SDS011;1338;48.176;11.792;2022-08-21T03:58:29;4.13;;;3.73;;
2656;SDS011;1338;48.176;11.792;2022-08-21T04:00:58;3.87;;;3.57;;
2656;SDS011;1338;48.176;11.792;2022-08-21T04:03:27;4.23;;;3.93;;
2656;SDS011;1338;48.176;11.792;2022-08-21T04:05:56;3.80;;;3.37;;
2656;SDS011;1338;48.176;11.792;2022-08-21T04:08:26;3.73;;;3.43;;
2656;SDS011;1338;48.176;11.792;2022-08-21T04:10:55;3.67;;;3.37;;
2656;SDS011;1338;48.176;11.792;2022-08-21T04:13:25;4.10;;;3.73;;
2656;SDS011;1338;48.176;11.792;2022-08-21T04:15:54;4.30;;;3.60;;
2656;SDS011;1338;48.176;11.792;2022-08-21T04:18:24;3.93;;;3.63;;
2656;SDS011;1338;48.176;11.792;2022-08-21T04:20:52;4.27;;;3.87;;
2656;SDS011;1338;48.176;11.792;2022-08-21T04:23:21;4.10;;;3.80;;
2656;SDS011;1338;48.176;11.792;2022-08-21T04:25:51;3.70;;;3.50;;
2656;SDS011;1338;48.176;11.792;2022-08-21T04:28:21;4.30;;;4.00;;
2656;SDS011;1338;48.176;11.792;2022-08-21T04:30:54;3.80;;;3.50;;
2656;SDS011;1338;48.176;11.792;2022-08-21T04:33:23;3.90;;;3.60;;
2656;SDS011;1338;48.176;11.792;2022-08-21T04:35:51;4.00;;;3.70;;
2656;SDS011;1338;48.176;11.792;2022-08-21T04:38:20;4.20;;;3.90;;
2656;SDS011;1338;48.176;11.792;2022-08-21T04:40:48;4.43;;;4.03;;
2656;SDS011;1338;48.176;11.792;2022-08-21T04:43:19;4.43;;;4.07;;
2656;SDS011;1338;48.176;11.792;2022-08-21T04:45:50;4.33;;;3.93;;
2656;SDS011;1338;48.176;11.792;2022-08-21T04:48:21;3.90;;;3.60;;
2656;SDS011;1338;48.176;11.792;2022-08-21T04:50:53;4.73;;;4.30;;
2656;SDS011;1338;48.176;11.792;2022-08-21T04:53:25;4.30;;;3.93;;
2656;SDS011;1338;48.176;11.792;2022-08-21T04:56:00;4.10;;;3.80;;
2656;SDS011;1338;48.176;11.792;2022-08-21T04:58:33;4.23;;;3.93;;
2656;SDS011;1338;48.176;11.792;2022-08-21T05:01:02;4.43;;;4.13;;
2656;SDS011;1338;48.176;11.792;2022-08-21T05:03:33;4.40;;;4.10;;
2656;SDS011;1338;48.176;11.792;2022-08-21T05:06:04;4.50;;;4.20;;
2656;SDS011;1338;48.176;11.792;2022-08-21T05:08:33;4.63;;;4.00;;
2656;SDS011;1338;48.176;11.792;2022-08-21T05:11:02;4.70;;;4.23;;
2656;SDS011;1338;48.176;11.792;2022-08-21T05:13:32;4.10;;;3.80;;
2656;SDS011;1338;48.176;11.792;2022-08-21T05:16:00;4.43;;;4.07;;
2656;SDS011;1338;48.176;11.792;2022-08-21T05:18:28;4.70;;;4.30;;
2656;SDS011;1338;48.176;11.792;2022-08-21T05:20:57;5.17;;;4.60;;
2656;SDS011;1338;48.176;11.792;2022-08-21T05:23:25;4.30;;;4.00;;
2656;SDS011;1338;48.176;11.792;2022-08-21T05:25:53;4.63;;;4.23;;
2656;SDS011;1338;48.176;11.792;2022-08-21T05:28:22;4.23;;;3.93;;
2656;SDS011;1338;48.176;11.792;2022-08-21T05:30:53;4.47;;;4.17;;
2656;SDS011;1338;48.176;11.792;2022-08-21T05:33:21;4.23;;;3.90;;
2656;SDS011;1338;48.176;11.792;2022-08-21T05:35:50;4.07;;;3.77;;
2656;SDS011;1338;48.176;11.792;2022-08-21T05:38:19;4.93;;;4.20;;
2656;SDS011;1338;48.176;11.792;2022-08-21T05:40:47;7.70;;;5.03;;
2656;SDS011;1338;48.176;11.792;2022-08-21T05:43:16;4.00;;;3.60;;
2656;SDS011;1338;48.176;11.792;2022-08-21T05:45:44;5.03;;;4.63;;
2656;SDS011;1338;48.176;11.792;2022-08-21T05:48:15;4.53;;;4.13;;
2656;SDS011;1338;48.176;11.792;2022-08-21T05:50:45;5.27;;;4.87;;
2656;SDS011;1338;48.176;11.792;2022-08-21T05:53:15;5.00;;;4.60;;
2656;SDS011;1338;48.176;11.792;2022-08-21T05:55:44;5.17;;;4.77;;
2656;SDS011;1338;48.176;11.792;2022-08-21T05:58:13;4.90;;;4.50;;
2656;SDS011;1338;48.176;11.792;2022-08-21T06:00:42;4.90;;;4.50;;
2656;SDS011;1338;48.176;11.792;2022-08-21T06:03:14;4.97;;;4.60;;
2656;SDS011;1338;48.176;11.792;2022-08-21T06:05:44;4.40;;;4.10;;
2656;SDS011;1338;48.176;11.792;2022-08-21T06:08:13;6.50;;;4.20;;
2656;SDS011;1338;48.176;11.792;2022-08-21T06:10:42;4.30;;;4.00;;
2656;SDS011;1338;48.176;11.792;2022-08-21T06:13:10;4.27;;;3.87;;
2656;SDS011;1338;48.176;11.792;2022-08-21T06:15:39;5.03;;;4.63;;
2656;SDS011;1338;48.176;11.792;2022-08-21T06:18:07;4.93;;;4.27;;
2656;SDS011;1338;48.176;11.792;2022-08-21T06:20:37;4.30;;;4.00;;
2656;SDS011;1338;48.176;11.792;2022-08-21T06:23:06;4.10;;;3.80;;
2656;SDS011;1338;48.176;11.792;2022-08-21T06:25:34;4.60;;;4.20;;
2656;SDS011;1338;48.176;11.792;2022-08-21T06:28:03;4.80;;;4.40;;
2656;SDS011;1338;48.176;11.792;2022-08-21T06:30:34;4.67;;;4.30;;
2656;SDS011;1338;48.176;11.792;2022-08-21T06:33:03;4.50;;;4.10;;
2656;SDS011;1338;48.176;11.792;2022-08-21T06:35:33;4.50;;;4.10;;
2656;SDS011;1338;48.176;11.792;2022-08-21T06:38:08;4.83;;;4.50;;
2656;SDS011;1338;48.176;11.792;2022-08-21T06:40:36;4.93;;;4.53;;
2656;SDS011;1338;48.176;11.792;2022-08-21T06:43:13;4.80;;;4.50;;
2656;SDS011;1338;48.176;11.792;2022-08-21T06:45:43;4.80;;;4.40;;
2656;SDS011;1338;48.176;11.792;2022-08-21T06:48:12;5.20;;;4.80;;
2656;SDS011;1338;48.176;11.792;2022-08-21T06:50:45;5.30;;;4.80;;
2656;SDS011;1338;48.176;11.792;2022-08-21T06:53:15;4.93;;;4.63;;
2656;SDS011;1338;48.176;11.792;2022-08-21T06:55:45;5.10;;;4.60;;
2656;SDS011;1338;48.176;11.792;2022-08-21T06:58:14;5.10;;;4.70;;
2656;SDS011;1338;48.176;11.792;2022-08-21T07:00:44;5.23;;;4.83;;
2656;SDS011;1338;48.176;11.792;2022-08-21T07:03:18;5.43;;;4.93;;
2656;SDS011;1338;48.176;11.792;2022-08-21T07:05:48;5.73;;;5.17;;
2656;SDS011;1338;48.176;11.792;2022-08-21T07:08:18;5.50;;;5.00;;
2656;SDS011;1338;48.176;11.792;2022-08-21T07:10:47;5.20;;;4.70;;
2656;SDS011;1338;48.176;11.792;2022-08-21T07:13:15;7.13;;;6.10;;
2656;SDS011;1338;48.176;11.792;2022-08-21T07:15:44;5.57;;;5.10;;
2656;SDS011;1338;48.176;11.792;2022-08-21T07:18:12;6.13;;;5.53;;
2656;SDS011;1338;48.176;11.792;2022-08-21T07:20:41;6.00;;;5.50;;
2656;SDS011;1338;48.176;11.792;2022-08-21T07:23:11;6.10;;;5.60;;
2656;SDS011;1338;48.176;11.792;2022-08-21T07:25:44;6.00;;;5.43;;
2656;SDS011;1338;48.176;11.792;2022-08-21T07:28:12;5.97;;;5.27;;
2656;SDS011;1338;48.176;11.792;2022-08-21T07:30:40;6.40;;;5.90;;
2656;SDS011;1338;48.176;11.792;2022-08-21T07:33:09;5.93;;;5.33;;
2656;SDS011;1338;48.176;11.792;2022-08-21T07:35:37;5.73;;;5.33;;
2656;SDS011;1338;48.176;11.792;2022-08-21T07:38:05;6.70;;;6.20;;
2656;SDS011;1338;48.176;11.792;2022-08-21T07:40:33;6.30;;;5.70;;
2656;SDS011;1338;48.176;11.792;2022-08-21T07:43:03;6.37;;;5.83;;
2656;SDS011;1338;48.176;11.792;2022-08-21T07:45:31;6.07;;;5.57;;
2656;SDS011;1338;48.176;11.792;2022-08-21T07:47:59;6.47;;;6.00;;
2656;SDS011;1338;48.176;11.792;2022-08-21T07:50:27;6.53;;;6.03;;
2656;SDS011;1338;48.176;11.792;2022-08-21T07:52:56;7.80;;;7.00;;
2656;SDS011;1338;48.176;11.792;2022-08-21T07:55:24;6.87;;;6.47;;
2656;SDS011;1338;48.176;11.792;2022-08-21T07:57:52;7.37;;;6.70;;
2656;SDS011;1338;48.176;11.792;2022-08-21T08:00:22;6.37;;;5.87;;
2656;SDS011;1338;48.176;11.792;2022-08-21T08:02:52;5.97;;;5.47;;
2656;SDS011;1338;48.176;11.792;2022-08-21T08:05:22;7.07;;;5.80;;
2656;SDS011;1338;48.176;11.792;2022-08-21T08:07:51;7.30;;;6.60;;
2656;SDS011;1338;48.176;11.792;2022-08-21T08:10:20;7.40;;;6.80;;
2656;SDS011;1338;48.176;11.792;2022-08-21T08:12:49;9.27;;;6.57;;
2656;SDS011;1338;48.176;11.792;2022-08-21T08:15:22;6.93;;;6.30;;
2656;SDS011;1338;48.176;11.792;2022-08-21T08:17:52;7.30;;;6.63;;
2656;SDS011;1338;48.176;11.792;2022-08-21T08:20:21;7.00;;;6.40;;
2656;SDS011;1338;48.176;11.792;2022-08-21T08:22:49;6.57;;;5.97;;
2656;SDS011;1338;48.176;11.792;2022-08-21T08:25:18;8.53;;;6.83;;
2656;SDS011;1338;48.176;11.792;2022-08-21T08:27:47;7.47;;;6.77;;
2656;SDS011;1338;48.176;11.792;2022-08-21T08:30:16;6.90;;;6.30;;
2656;SDS011;1338;48.176;11.792;2022-08-21T08:32:47;8.20;;;7.37;;
2656;SDS011;1338;48.176;11.792;2022-08-21T08:35:16;7.90;;;7.17;;
2656;SDS011;1338;48.176;11.792;2022-08-21T08:37:49;7.60;;;7.00;;
2656;SDS011;1338;48.176;11.792;2022-08-21T08:40:25;8.00;;;7.40;;
2656;SDS011;1338;48.176;11.792;2022-08-21T08:43:04;7.33;;;6.77;;
2656;SDS011;1338;48.176;11.792;2022-08-21T08:45:34;7.70;;;7.10;;
2656;SDS011;1338;48.176;11.792;2022-08-21T08:48:07;7.17;;;6.63;;
2656;SDS011;1338;48.176;11.792;2022-08-21T08:50:41;7.00;;;6.20;;
2656;SDS011;1338;48.176;11.792;2022-08-21T08:53:14;7.37;;;6.67;;
2656;SDS011;1338;48.176;11.792;2022-08-21T08:55:47;7.00;;;6.40;;
2656;SDS011;1338;48.176;11.792;2022-08-21T08:58:20;7.40;;;6.90;;
2656;SDS011;1338;48.176;11.792;2022-08-21T09:00:51;7.30;;;6.80;;
2656;SDS011;1338;48.176;11.792;2022-08-21T09:03:23;7.37;;;6.77;;
2656;SDS011;1338;48.176;11.792;2022-08-21T09:05:54;7.27;;;6.70;;
2656;SDS011;1338;48.176;11.792;2022-08-21T09:08:32;7.97;;;7.37;;
2656;SDS011;1338;48.176;11.792;2022-08-21T09:11:10;7.30;;;6.70;;
2656;SDS011;1338;48.176;11.792;2022-08-21T09:13:45;6.30;;;5.80;;
2656;SDS011;1338;48.176;11.792;2022-08-21T09:16:25;6.90;;;6.40;;
2656;SDS011;1338;48.176;11.792;2022-08-21T09:19:15;6.70;;;6.17;;
2656;SDS011;1338;48.176;11.792;2022-08-21T09:22:00;8.33;;;7.73;;
2656;SDS011;1338;48.176;11.792;2022-08-21T09:24:38;6.67;;;6.10;;
2656;SDS011;1338;48.176;11.792;2022-08-21T09:27:18;7.20;;;6.70;;
2656;SDS011;1338;48.176;11.792;2022-08-21T09:29:48;6.60;;;6.00;;
2656;SDS011;1338;48.176;11.792;2022-08-21T09:32:21;6.93;;;6.40;;
2656;SDS011;1338;48.176;11.792;2022-08-21T09:35:05;6.60;;;6.10;;
2656;SDS011;1338;48.176;11.792;2022-08-21T09:37:45;7.30;;;6.43;;
2656;SDS011;1338;48.176;11.792;2022-08-21T09:40:25;5.70;;;5.30;;
2656;SDS011;1338;48.176;11.792;2022-08-21T09:42:58;6.40;;;5.80;;
2656;SDS011;1338;48.176;11.792;2022-08-21T09:45:28;5.97;;;5.53;;
2656;SDS011;1338;48.176;11.792;2022-08-21T09:48:09;6.40;;;5.90;;
2656;SDS011;1338;48.176;11.792;2022-08-21T09:50:40;6.30;;;5.80;;
2656;SDS011;1338;48.176;11.792;2022-08-21T09:53:19;6.00;;;5.50;;
2656;SDS011;1338;48.176;11.792;2022-08-21T09:55:51;7.80;;;6.00;;
2656;SDS011;1338;48.176;11.792;2022-08-21T09:58:38;5.77;;;5.37;;
2656;SDS011;1338;48.176;11.792;2022-08-21T10:01:12;5.10;;;4.70;;
2656;SDS011;1338;48.176;11.792;2022-08-21T10:03:42;5.87;;;5.37;;
2656;SDS011;1338;48.176;11.792;2022-08-21T10:06:20;5.93;;;5.53;;
2656;SDS011;1338;48.176;11.792;2022-08-21T10:08:50;5.10;;;4.70;;
2656;SDS011;1338;48.176;11.792;2022-08-21T10:11:18;6.97;;;6.37;;
2656;SDS011;1338;48.176;11.792;2022-08-21T10:13:56;6.03;;;5.43;;
2656;SDS011;1338;48.176;11.792;2022-08-21T10:16:30;4.97;;;4.57;;
2656;SDS011;1338;48.176;11.792;2022-08-21T10:19:12;5.47;;;5.07;;
2656;SDS011;1338;48.176;11.792;2022-08-21T10:22:00;7.63;;;6.90;;
2656;SDS011;1338;48.176;11.792;2022-08-21T10:24:37;5.77;;;5.37;;
2656;SDS011;1338;48.176;11.792;2022-08-21T10:27:19;6.83;;;5.97;;
2656;SDS011;1338;48.176;11.792;2022-08-21T10:29:55;4.90;;;4.50;;
2656;SDS011;1338;48.176;11.792;2022-08-21T10:32:29;5.47;;;5.07;;
2656;SDS011;1338;48.176;11.792;2022-08-21T10:35:21;5.47;;;5.13;;
2656;SDS011;1338;48.176;11.792;2022-08-21T10:38:01;5.30;;;4.80;;
2656;SDS011;1338;48.176;11.792;2022-08-21T10:41:14;5.77;;;5.27;;
2656;SDS011;1338;48.176;11.792;2022-08-21T10:43:50;5.50;;;5.10;;
2656;SDS011;1338;48.176;11.792;2022-08-21T10:46:27;5.67;;;5.27;;
2656;SDS011;1338;48.176;11.792;2022-08-21T10:49:07;5.53;;;5.13;;
2656;SDS011;1338;48.176;11.792;2022-08-21T10:51:46;5.20;;;4.80;;
2656;SDS011;1338;48.176;11.792;2022-08-21T10:54:26;5.17;;;4.77;;
2656;SDS011;1338;48.176;11.792;2022-08-21T10:57:03;4.87;;;4.47;;
2656;SDS011;1338;48.176;11.792;2022-08-21T10:59:38;4.87;;;4.47;;
2656;SDS011;1338;48.176;11.792;2022-08-21T11:02:12;5.23;;;4.83;;
2656;SDS011;1338;48.176;11.792;2022-08-21T11:04:48;5.77;;;5.33;;
2656;SDS011;1338;48.176;11.792;2022-08-21T11:07:22;5.77;;;5.37;;
2656;SDS011;1338;48.176;11.792;2022-08-21T11:10:03;6.40;;;5.90;;
2656;SDS011;1338;48.176;11.792;2022-08-21T11:12:39;5.97;;;5.47;;
2656;SDS011;1338;48.176;11.792;2022-08-21T11:15:15;5.70;;;5.30;;
2656;SDS011;1338;48.176;11.792;2022-08-21T11:18:02;5.50;;;5.10;;
2656;SDS011;1338;48.176;11.792;2022-08-21T11:20:42;5.40;;;4.90;;
2656;SDS011;1338;48.176;11.792;2022-08-21T11:23:14;5.33;;;4.83;;
2656;SDS011;1338;48.176;11.792;2022-08-21T11:25:51;4.83;;;4.53;;
2656;SDS011;1338;48.176;11.792;2022-08-21T11:28:22;5.40;;;4.90;;
2656;SDS011;1338;48.176;11.792;2022-08-21T11:30:58;5.10;;;4.60;;
2656;SDS011;1338;48.176;11.792;2022-08-21T11:33:36;5.23;;;4.83;;
2656;SDS011;1338;48.176;11.792;2022-08-21T11:36:19;4.57;;;4.17;;
2656;SDS011;1338;48.176;11.792;2022-08-21T11:38:57;5.07;;;4.70;;
2656;SDS011;1338;48.176;11.792;2022-08-21T11:41:36;4.50;;;4.20;;
2656;SDS011;1338;48.176;11.792;2022-08-21T11:44:10;4.80;;;4.50;;
2656;SDS011;1338;48.176;11.792;2022-08-21T11:46:46;5.00;;;4.70;;
2656;SDS011;1338;48.176;11.792;2022-08-21T11:49:23;5.40;;;4.93;;
2656;SDS011;1338;48.176;11.792;2022-08-21T11:52:03;5.70;;;5.27;;
2656;SDS011;1338;48.176;11.792;2022-08-21T11:54:41;5.90;;;5.50;;
2656;SDS011;1338;48.176;11.792;2022-08-21T11:57:16;5.13;;;4.73;;
2656;SDS011;1338;48.176;11.792;2022-08-21T11:59:49;5.77;;;5.37;;
2656;SDS011;1338;48.176;11.792;2022-08-21T12:02:28;5.73;;;5.23;;
2656;SDS011;1338;48.176;11.792;2022-08-21T12:05:02;6.60;;;6.10;;
2656;SDS011;1338;48.176;11.792;2022-08-21T12:07:35;5.80;;;5.40;;
2656;SDS011;1338;48.176;11.792;2022-08-21T12:10:07;6.23;;;5.77;;
2656;SDS011;1338;48.176;11.792;2022-08-21T12:12:40;6.23;;;5.83;;
2656;SDS011;1338;48.176;11.792;2022-08-21T12:15:17;5.70;;;5.30;;
2656;SDS011;1338;48.176;11.792;2022-08-21T12:17:54;4.60;;;4.30;;
2656;SDS011;1338;48.176;11.792;2022-08-21T12:20:35;4.90;;;4.50;;
2656;SDS011;1338;48.176;11.792;2022-08-21T12:23:24;4.87;;;4.47;;
2656;SDS011;1338;48.176;11.792;2022-08-21T12:26:00;4.40;;;4.10;;
2656;SDS011;1338;48.176;11.792;2022-08-21T12:28:45;6.23;;;5.00;;
2656;SDS011;1338;48.176;11.792;2022-08-21T12:31:18;5.40;;;5.00;;
2656;SDS011;1338;48.176;11.792;2022-08-21T12:33:52;5.60;;;5.10;;
2656;SDS011;1338;48.176;11.792;2022-08-21T12:36:26;4.60;;;4.30;;
2656;SDS011;1338;48.176;11.792;2022-08-21T12:39:12;5.07;;;4.67;;
2656;SDS011;1338;48.176;11.792;2022-08-21T12:41:45;5.37;;;4.97;;
2656;SDS011;1338;48.176;11.792;2022-08-21T12:44:21;5.20;;;4.80;;
2656;SDS011;1338;48.176;11.792;2022-08-21T12:46:54;5.53;;;5.03;;
2656;SDS011;1338;48.176;11.792;2022-08-21T12:49:26;6.00;;;5.50;;
2656;SDS011;1338;48.176;11.792;2022-08-21T12:52:01;5.80;;;5.40;;
2656;SDS011;1338;48.176;11.792;2022-08-21T12:54:37;5.70;;;5.30;;
2656;SDS011;1338;48.176;11.792;2022-08-21T12:57:07;5.07;;;4.67;;
2656;SDS011;1338;48.176;11.792;2022-08-21T12:59:38;4.97;;;4.60;;
2656;SDS011;1338;48.176;11.792;2022-08-21T13:02:11;5.27;;;4.87;;
2656;SDS011;1338;48.176;11.792;2022-08-21T13:04:44;5.00;;;4.60;;
2656;SDS011;1338;48.176;11.792;2022-08-21T13:07:15;5.60;;;4.70;;
2656;SDS011;1338;48.176;11.792;2022-08-21T13:09:52;4.77;;;4.47;;
2656;SDS011;1338;48.176;11.792;2022-08-21T13:12:24;5.40;;;4.70;;
2656;SDS011;1338;48.176;11.792;2022-08-21T13:15:02;4.40;;;4.10;;
2656;SDS011;1338;48.176;11.792;2022-08-21T13:17:36;4.67;;;4.27;;
2656;SDS011;1338;48.176;11.792;2022-08-21T13:20:09;4.70;;;4.40;;
2656;SDS011;1338;48.176;11.792;2022-08-21T13:22:47;4.73;;;4.43;;
2656;SDS011;1338;48.176;11.792;2022-08-21T13:25:16;4.73;;;4.43;;
2656;SDS011;1338;48.176;11.792;2022-08-21T13:27:56;5.10;;;4.70;;
2656;SDS011;1338;48.176;11.792;2022-08-21T13:30:28;5.20;;;4.80;;
2656;SDS011;1338;48.176;11.792;2022-08-21T13:32:58;5.07;;;4.67;;
2656;SDS011;1338;48.176;11.792;2022-08-21T13:35:28;5.40;;;4.97;;
2656;SDS011;1338;48.176;11.792;2022-08-21T13:38:02;5.30;;;4.90;;
2656;SDS011;1338;48.176;11.792;2022-08-21T13:40:45;5.70;;;5.03;;
2656;SDS011;1338;48.176;11.792;2022-08-21T13:43:17;4.90;;;4.60;;
2656;SDS011;1338;48.176;11.792;2022-08-21T13:45:50;4.60;;;4.30;;
2656;SDS011;1338;48.176;11.792;2022-08-21T13:48:20;5.53;;;5.03;;
2656;SDS011;1338;48.176;11.792;2022-08-21T13:50:52;5.13;;;4.73;;
2656;SDS011;1338;48.176;11.792;2022-08-21T13:53:23;5.10;;;4.80;;
2656;SDS011;1338;48.176;11.792;2022-08-21T13:55:56;5.00;;;4.30;;
2656;SDS011;1338;48.176;11.792;2022-08-21T13:58:27;5.23;;;4.87;;
2656;SDS011;1338;48.176;11.792;2022-08-21T14:00:58;4.60;;;4.20;;
2656;SDS011;1338;48.176;11.792;2022-08-21T14:03:33;4.63;;;4.33;;
2656;SDS011;1338;48.176;11.792;2022-08-21T14:06:10;5.00;;;4.70;;
2656;SDS011;1338;48.176;11.792;2022-08-21T14:08:40;5.33;;;4.93;;
2656;SDS011;1338;48.176;11.792;2022-08-21T14:11:09;4.70;;;4.40;;
2656;SDS011;1338;48.176;11.792;2022-08-21T14:13:40;5.07;;;4.70;;
2656;SDS011;1338;48.176;11.792;2022-08-21T14:16:13;4.67;;;4.27;;
2656;SDS011;1338;48.176;11.792;2022-08-21T14:18:44;4.57;;;4.27;;
2656;SDS011;1338;48.176;11.792;2022-08-21T14:21:26;5.03;;;4.63;;
2656;SDS011;1338;48.176;11.792;2022-08-21T14:24:04;4.50;;;4.20;;
2656;SDS011;1338;48.176;11.792;2022-08-21T14:26:35;4.90;;;4.60;;
2656;SDS011;1338;48.176;11.792;2022-08-21T14:29:11;5.20;;;4.80;;
2656;SDS011;1338;48.176;11.792;2022-08-21T14:31:48;4.53;;;4.23;;
2656;SDS011;1338;48.176;11.792;2022-08-21T14:34:18;4.70;;;4.33;;
2656;SDS011;1338;48.176;11.792;2022-08-21T14:36:47;5.17;;;4.77;;
2656;SDS011;1338;48.176;11.792;2022-08-21T14:39:16;4.63;;;4.33;;
2656;SDS011;1338;48.176;11.792;2022-08-21T14:41:45;4.43;;;4.17;;
2656;SDS011;1338;48.176;11.792;2022-08-21T14:44:14;4.57;;;4.17;;
2656;SDS011;1338;48.176;11.792;2022-08-21T14:46:45;4.53;;;4.23;;
2656;SDS011;1338;48.176;11.792;2022-08-21T14:49:22;4.30;;;4.07;;
2656;SDS011;1338;48.176;11.792;2022-08-21T14:51:53;5.27;;;4.87;;
2656;SDS011;1338;48.176;11.792;2022-08-21T14:54:24;5.00;;;4.20;;
2656;SDS011;1338;48.176;11.792;2022-08-21T14:56:57;4.60;;;4.30;;
2656;SDS011;1338;48.176;11.792;2022-08-21T14:59:28;4.67;;;4.30;;
2656;SDS011;1338;48.176;11.792;2022-08-21T15:01:58;4.70;;;4.30;;
2656;SDS011;1338;48.176;11.792;2022-08-21T15:04:26;4.57;;;4.27;;
2656;SDS011;1338;48.176;11.792;2022-08-21T15:06:55;4.43;;;4.03;;
2656;SDS011;1338;48.176;11.792;2022-08-21T15:09:23;4.67;;;4.33;;
2656;SDS011;1338;48.176;11.792;2022-08-21T15:11:51;4.30;;;4.00;;
2656;SDS011;1338;48.176;11.792;2022-08-21T15:14:20;5.00;;;4.60;;
2656;SDS011;1338;48.176;11.792;2022-08-21T15:16:51;4.87;;;4.37;;
2656;SDS011;1338;48.176;11.792;2022-08-21T15:19:21;4.00;;;3.80;;
2656;SDS011;1338;48.176;11.792;2022-08-21T15:21:49;4.37;;;4.07;;
2656;SDS011;1338;48.176;11.792;2022-08-21T15:24:18;4.50;;;4.20;;
2656;SDS011;1338;48.176;11.792;2022-08-21T15:26:46;4.70;;;4.27;;
2656;SDS011;1338;48.176;11.792;2022-08-21T15:29:14;4.33;;;3.93;;